KWYS/WYS METAR and TAF weather

Enter ICAO airport designator
Station Type Date Time Source
KWYS METAR 2021/11/12 16:30 UTC NOAA

KWYS 121630Z AUTO 00000KT 6SM -UP OVC009 M03/M03 A3037 RMK AO2


Station Type Date Time Source
KWYS Decoded METAR 2021/11/12 16:30 UTC NOAA

West Yellowstone, MT, United States (KWYS) 44-41N 111-07W
Nov 12, 2021 - 11:30 AM EST / 2021.11.12 1630 UTC
Wind: Calm:0
Visibility: 6 mile(s):0
Sky conditions: overcast
Weather: light precipitation
Temperature: 26 F (-3 C)
Dew Point: 26 F (-3 C)
Relative Humidity: 100%
Pressure (altimeter): 30.37 in. Hg (1028 hPa)
ob: KWYS 121630Z AUTO 00000KT 6SM -UP OVC009 M03/M03 A3037 RMK AO2
cycle: 16

Station Type Date Time Source
KWYS TAF 2021/11/26 00:29 UTC NOAA

TAF KWYS 262329Z 2700/2724 20008KT P6SM BKN050
FM270300 VRB06KT P6SM BKN090 PROB30 2712/2715 4SM -SN BR OVC025
FM271900 21008KT P6SM BKN090

Example: see airport list